Time;durP1;ratioP1;P1;durP2;ratioP2;P2;SDS_P1;SDS_P2;PMS_P1;PMS_P2;Temp;Humidity;BMP_temperature;BMP_pressure;BME280_temperature;BME280_humidity;BME280_pressure;Samples;Min_cycle;Max_cycle;Signal;HPM_P1;HPM_P2
2024/01/27 00:02:45;;;;;;;351.77;100.67;;;7.70;85.00;10.10;97524.00;;;;5027744;28;20241;-86
2024/01/27 00:05:34;;;;;;;340.17;93.73;;;7.70;85.60;10.10;97528.00;;;;5002689;28;20737;-85
2024/01/27 00:08:23;;;;;;;338.27;90.73;;;7.60;83.90;10.00;97538.00;;;;5025458;28;20271;-88
2024/01/27 00:11:14;;;;;;;339.60;90.77;;;7.70;83.60;10.20;97546.00;;;;5008909;28;20222;-85
2024/01/27 00:14:03;;;;;;;335.33;88.77;;;7.60;83.50;10.00;97541.00;;;;5030625;28;20278;-84
2024/01/27 00:16:52;;;;;;;337.40;88.30;;;7.60;86.00;9.70;97557.00;;;;5027916;27;20551;-86
2024/01/27 00:19:41;;;;;;;341.80;90.97;;;7.40;93.40;9.90;97547.00;;;;5001855;28;20214;-87
2024/01/27 00:22:30;;;;;;;345.37;96.80;;;7.40;82.00;10.00;97529.00;;;;5015348;28;20207;-87
2024/01/27 00:25:19;;;;;;;346.63;96.77;;;7.50;82.70;10.00;97542.00;;;;5025492;28;20433;-84
2024/01/27 00:28:09;;;;;;;341.03;91.07;;;7.50;82.10;10.10;97552.00;;;;5017800;28;20611;-87
2024/01/27 00:30:58;;;;;;;344.23;98.17;;;7.50;82.20;9.90;97565.00;;;;5023336;28;20232;-86
2024/01/27 00:33:47;;;;;;;333.77;90.20;;;7.50;81.40;10.10;97563.00;;;;5002842;28;20209;-85
2024/01/27 00:36:36;;;;;;;344.70;99.67;;;7.50;81.70;10.00;97560.00;;;;5037822;28;20210;-86
2024/01/27 00:39:25;;;;;;;367.67;129.57;;;7.30;92.30;9.50;97557.00;;;;4999617;28;20408;-87
2024/01/27 00:42:14;;;;;;;341.00;97.87;;;7.40;81.30;9.90;97557.00;;;;5001612;28;20210;-86
2024/01/27 00:45:06;;;;;;;338.70;92.97;;;7.40;81.60;9.80;97568.00;;;;4999658;28;20212;-86
2024/01/27 00:47:55;;;;;;;342.40;96.40;;;7.40;81.30;9.80;97555.00;;;;5011540;28;20229;-85
2024/01/27 00:50:44;;;;;;;341.70;97.90;;;7.30;81.00;9.80;97580.00;;;;5020286;28;20222;-86
2024/01/27 00:53:33;;;;;;;341.40;98.43;;;7.30;81.10;9.70;97582.00;;;;5010948;28;20205;-85
2024/01/27 00:56:22;;;;;;;340.53;93.43;;;7.30;80.30;9.70;97576.00;;;;5044171;28;20281;-84
2024/01/27 00:59:11;;;;;;;338.60;89.67;;;7.30;79.80;9.80;97580.00;;;;5049197;28;20221;-87
2024/01/27 01:02:01;;;;;;;337.47;90.57;;;7.30;79.40;9.20;97563.00;;;;5025504;28;20228;-88
2024/01/27 01:04:50;;;;;;;339.03;89.77;;;7.30;78.50;9.60;97579.00;;;;5002941;28;20218;-86
2024/01/27 01:07:39;;;;;;;343.47;94.83;;;7.30;79.60;9.60;97581.00;;;;5004662;28;20230;-88
2024/01/27 01:10:29;;;;;;;334.40;89.80;;;7.40;77.40;9.90;97589.00;;;;5019140;28;20458;-83
2024/01/27 01:13:18;;;;;;;342.33;96.60;;;7.40;78.30;9.70;97589.00;;;;5032956;28;20210;-84
2024/01/27 01:16:08;;;;;;;332.30;90.53;;;7.40;77.50;9.90;97577.00;;;;5024034;28;20441;-86
2024/01/27 01:18:59;;;;;;;337.90;92.17;;;7.40;77.50;9.50;97581.00;;;;5026267;28;20430;-88
2024/01/27 01:21:48;;;;;;;343.33;95.90;;;7.50;75.90;9.70;97598.00;;;;5015541;28;20487;-88
2024/01/27 01:24:37;;;;;;;341.80;92.30;;;7.50;76.20;9.60;97605.00;;;;5039514;28;20423;-87
2024/01/27 01:27:26;;;;;;;334.27;89.03;;;7.50;75.50;9.80;97585.00;;;;5017325;28;20460;-87
2024/01/27 01:30:15;;;;;;;338.33;95.27;;;7.50;74.90;10.00;97593.00;;;;5001613;28;20962;-83
2024/01/27 01:33:04;;;;;;;335.23;88.57;;;8.00;76.20;9.40;97610.00;;;;5001231;28;20435;-89
2024/01/27 01:35:55;;;;;;;332.63;87.73;;;7.50;73.90;9.50;97610.00;;;;5019186;28;20909;-87
2024/01/27 01:38:43;;;;;;;341.73;94.93;;;7.50;74.30;9.70;97584.00;;;;5017959;28;20426;-84
2024/01/27 01:41:32;;;;;;;331.00;85.27;;;7.50;74.10;9.80;97597.00;;;;5037834;28;20445;-89
2024/01/27 01:44:21;;;;;;;333.90;89.17;;;7.50;74.10;9.90;97601.00;;;;5022681;28;20441;-90
2024/01/27 01:47:10;;;;;;;340.20;92.27;;;7.50;74.70;9.70;97607.00;;;;5020502;28;20436;-87
2024/01/27 01:50:00;;;;;;;333.80;89.17;;;;;9.40;97611.00;;;;5003440;28;20468;-88
2024/01/27 01:52:52;;;;;;;345.83;97.90;;;7.30;74.50;9.40;97610.00;;;;5020531;28;20426;-85
2024/01/27 01:55:41;;;;;;;340.63;94.27;;;7.20;74.40;9.60;97620.00;;;;5001421;28;20447;-85
2024/01/27 01:58:34;;;;;;;333.87;87.83;;;;;9.30;97617.00;;;;5008080;28;20432;-89
2024/01/27 02:01:23;;;;;;;335.00;91.13;;;7.20;72.20;9.50;97605.00;;;;5041647;28;20510;-87
2024/01/27 02:04:12;;;;;;;341.37;90.30;;;7.20;73.50;9.50;97623.00;;;;5002584;28;20452;-87
2024/01/27 02:07:00;;;;;;;335.90;92.80;;;7.20;71.60;9.70;97616.00;;;;5009989;28;20437;-86
2024/01/27 02:09:51;;;;;;;342.90;95.27;;;7.10;90.20;9.60;97612.00;;;;5008682;28;20437;-84
2024/01/27 02:12:40;;;;;;;350.40;97.67;;;7.10;72.70;9.30;97620.00;;;;5021815;28;20815;-86
2024/01/27 02:15:29;;;;;;;333.90;89.37;;;7.00;72.80;9.20;97588.00;;;;5002520;28;20429;-84
2024/01/27 02:18:18;;;;;;;333.10;87.13;;;6.90;73.10;9.10;97617.00;;;;5017990;28;20425;-85
2024/01/27 02:21:07;;;;;;;328.80;82.83;;;6.90;70.90;9.30;97612.00;;;;5025167;28;20531;-85
2024/01/27 02:23:55;;;;;;;331.57;87.17;;;6.90;72.00;9.30;97617.00;;;;5003931;28;21078;-84
2024/01/27 02:26:46;;;;;;;333.83;86.27;;;7.00;70.70;9.20;97621.00;;;;4999645;28;20429;-86
2024/01/27 02:29:35;;;;;;;335.73;88.87;;;7.00;70.20;9.50;97612.00;;;;5029385;28;20460;-85
2024/01/27 02:32:24;;;;;;;335.30;88.43;;;7.00;70.00;9.00;97610.00;;;;5007376;28;20444;-91
2024/01/27 02:35:14;;;;;;;333.97;84.90;;;6.10;71.20;9.30;97619.00;;;;5006572;28;20429;-84
2024/01/27 02:38:03;;;;;;;331.67;85.90;;;6.90;71.60;9.00;97616.00;;;;5026319;28;20423;-89
2024/01/27 02:40:51;;;;;;;330.33;83.33;;;6.90;70.90;9.50;97622.00;;;;5027287;28;20438;-84
2024/01/27 02:43:42;;;;;;;340.60;91.67;;;6.90;71.00;9.10;97631.00;;;;5007922;28;20434;-87
2024/01/27 02:46:31;;;;;;;337.70;90.90;;;6.80;71.30;9.20;97622.00;;;;5021123;28;20425;-89
2024/01/27 02:49:19;;;;;;;329.50;83.37;;;6.80;71.90;8.60;97613.00;;;;5006304;28;20469;-83
2024/01/27 02:52:09;;;;;;;333.10;87.43;;;6.80;70.60;9.40;97618.00;;;;5011523;28;20433;-87
2024/01/27 02:54:58;;;;;;;332.23;84.90;;;6.80;71.40;8.90;97627.00;;;;5029097;28;20429;-86
2024/01/27 02:57:46;;;;;;;338.77;88.57;;;6.80;71.50;9.30;97618.00;;;;5007763;28;20977;-86
2024/01/27 03:00:37;;;;;;;339.20;87.83;;;6.80;72.10;9.10;97624.00;;;;5010311;28;20452;-86
2024/01/27 03:03:26;;;;;;;328.37;82.77;;;6.70;72.90;8.90;97625.00;;;;5004441;28;20559;-83
2024/01/27 03:06:14;;;;;;;330.67;83.57;;;6.60;73.80;8.60;97635.00;;;;5017304;28;20444;-86
2024/01/27 03:09:04;;;;;;;333.60;84.07;;;6.40;73.80;8.70;97630.00;;;;5003673;28;20982;-84
2024/01/27 03:11:53;;;;;;;327.47;81.57;;;6.40;73.30;8.60;97635.00;;;;5005588;28;20439;-87
2024/01/27 03:14:42;;;;;;;340.60;88.83;;;6.20;74.30;8.40;97631.00;;;;5003158;28;20825;-86
2024/01/27 03:17:32;;;;;;;326.33;80.60;;;6.20;73.90;8.70;97619.00;;;;5027936;28;20417;-88
2024/01/27 03:20:21;;;;;;;330.33;81.57;;;6.20;74.00;8.80;97629.00;;;;5040680;28;20875;-87
2024/01/27 03:23:10;;;;;;;327.67;79.97;;;6.20;74.20;8.80;97629.00;;;;5020926;28;20441;-86
2024/01/27 03:25:58;;;;;;;327.47;80.77;;;6.20;73.70;8.70;97636.00;;;;5000510;28;20434;-85
2024/01/27 03:28:47;;;;;;;336.43;87.07;;;6.30;74.90;8.50;97641.00;;;;5024233;28;20480;-87
2024/01/27 03:31:36;;;;;;;334.53;83.40;;;6.20;75.20;8.60;97642.00;;;;4997958;28;20457;-88
2024/01/27 03:34:27;;;;;;;330.07;82.20;;;6.10;75.30;8.30;97639.00;;;;5004499;28;20441;-88
2024/01/27 03:37:16;;;;;;;333.07;85.27;;;6.10;76.30;8.20;97631.00;;;;5025544;28;20437;-86
2024/01/27 03:40:06;;;;;;;329.03;82.23;;;6.20;73.10;9.20;97653.00;;;;5014480;28;20441;-84
2024/01/27 03:42:55;;;;;;;330.50;82.23;;;6.40;73.20;8.90;97641.00;;;;5045875;28;20438;-87
2024/01/27 03:45:45;;;;;;;339.37;88.53;;;6.50;73.20;9.10;97636.00;;;;5023934;28;20443;-86
2024/01/27 03:48:35;;;;;;;332.20;84.37;;;6.50;73.20;9.10;97650.00;;;;5001088;28;20461;-86
2024/01/27 03:51:26;;;;;;;329.80;81.67;;;6.50;73.80;8.90;97655.00;;;;5022514;28;20453;-88
2024/01/27 03:54:15;;;;;;;328.53;81.97;;;6.50;74.20;8.70;97656.00;;;;5024764;28;20450;-86
2024/01/27 03:57:04;;;;;;;338.63;89.43;;;6.40;74.50;8.60;97670.00;;;;5028906;28;20426;-87
2024/01/27 03:59:53;;;;;;;332.50;84.03;;;6.30;92.10;8.50;97658.00;;;;5005797;27;20805;-87
2024/01/27 04:02:42;;;;;;;339.07;89.50;;;6.20;75.20;8.30;97670.00;;;;5009339;28;20434;-85
2024/01/27 04:05:32;;;;;;;342.83;91.23;;;6.20;74.70;8.70;97663.00;;;;5001679;28;20444;-86
2024/01/27 04:08:22;;;;;;;331.67;83.40;;;6.20;74.80;8.80;97672.00;;;;5061373;27;20816;-86
2024/01/27 04:11:11;;;;;;;328.67;79.93;;;6.20;75.40;8.60;97680.00;;;;5025868;28;20487;-84
2024/01/27 04:14:01;;;;;;;329.00;82.23;;;6.20;76.40;8.70;97681.00;;;;5022161;28;20421;-84
2024/01/27 04:16:50;;;;;;;338.80;88.23;;;6.10;76.20;8.60;97675.00;;;;5027459;28;20443;-85
2024/01/27 04:19:39;;;;;;;337.13;88.97;;;6.10;92.00;8.50;97671.00;;;;5006906;28;20434;-87
2024/01/27 04:22:28;;;;;;;334.93;85.53;;;6.00;77.00;8.20;97672.00;;;;5030503;28;20433;-87
2024/01/27 04:25:18;;;;;;;339.80;89.90;;;5.90;77.10;8.30;97680.00;;;;5013736;28;20504;-88
2024/01/27 04:28:09;;;;;;;329.97;83.17;;;5.90;77.90;8.40;97684.00;;;;5042390;28;20546;-85
2024/01/27 04:30:58;;;;;;;330.47;84.30;;;5.80;77.40;8.30;97676.00;;;;5004585;28;20450;-86
2024/01/27 04:33:46;;;;;;;337.63;85.57;;;5.80;77.60;7.90;97687.00;;;;5003463;28;20958;-85
2024/01/27 04:36:36;;;;;;;337.87;87.00;;;5.70;78.90;7.80;97684.00;;;;5026674;28;20886;-87
2024/01/27 04:39:25;;;;;;;325.80;78.93;;;5.60;80.50;7.90;97699.00;;;;4999775;28;20425;-84
2024/01/27 04:42:16;;;;;;;331.13;83.10;;;5.50;79.80;8.10;97714.00;;;;5058065;28;20422;-85
2024/01/27 04:45:06;;;;;;;330.50;80.10;;;5.50;78.50;8.20;97705.00;;;;5004605;28;20434;-84
2024/01/27 04:47:55;;;;;;;326.07;80.13;;;5.60;77.90;8.00;97702.00;;;;5004125;28;20427;-87
2024/01/27 04:50:44;;;;;;;335.37;84.27;;;5.70;78.80;8.00;97707.00;;;;5049880;28;20530;-84
2024/01/27 04:53:32;;;;;;;324.63;79.23;;;5.70;79.10;8.20;97707.00;;;;5007629;28;20426;-85
2024/01/27 04:56:21;;;;;;;328.30;80.20;;;5.70;78.60;8.30;97699.00;;;;5028821;28;20832;-86
2024/01/27 04:59:12;;;;;;;325.93;78.93;;;5.80;78.70;8.20;97707.00;;;;5014355;28;20425;-85
2024/01/27 05:02:00;;;;;;;328.67;81.87;;;5.80;79.20;8.50;97712.00;;;;5006180;28;20437;-87
2024/01/27 05:04:49;;;;;;;325.80;81.73;;;5.80;78.40;8.50;97713.00;;;;5003702;28;20439;-85
2024/01/27 05:07:38;;;;;;;336.00;85.57;;;5.90;78.70;8.40;97712.00;;;;5004492;28;20433;-87
2024/01/27 05:10:27;;;;;;;328.00;81.40;;;5.20;78.00;8.50;97736.00;;;;5043447;28;20479;-86
2024/01/27 05:13:16;;;;;;;330.30;83.67;;;5.90;78.80;8.30;97730.00;;;;5007941;28;21253;-84
2024/01/27 05:16:07;;;;;;;330.47;82.10;;;5.90;78.40;8.30;97736.00;;;;5052910;28;20434;-85
2024/01/27 05:18:56;;;;;;;331.60;82.23;;;5.90;78.90;7.70;97737.00;;;;5032588;28;20430;-85
2024/01/27 05:21:45;;;;;;;338.87;84.27;;;5.90;80.50;8.30;97756.00;;;;5006843;28;21023;-83
2024/01/27 05:24:34;;;;;;;332.93;81.47;;;5.90;78.50;8.40;97772.00;;;;5024038;28;20441;-85
2024/01/27 05:27:23;;;;;;;329.03;81.63;;;5.90;77.70;8.60;97768.00;;;;5028441;28;21005;-85
2024/01/27 05:30:13;;;;;;;331.17;85.67;;;5.90;78.00;8.50;97777.00;;;;5002727;28;20486;-85
2024/01/27 05:33:03;;;;;;;332.50;81.97;;;5.90;80.60;8.20;97778.00;;;;5005431;28;20445;-86
2024/01/27 05:35:52;;;;;;;334.63;84.73;;;5.80;79.90;8.30;97781.00;;;;5005129;28;20564;-85
2024/01/27 05:38:41;;;;;;;344.50;90.27;;;5.80;78.60;8.20;97781.00;;;;5004319;28;20445;-85
2024/01/27 05:41:30;;;;;;;338.27;85.70;;;5.80;79.20;8.20;97791.00;;;;5003234;28;20852;-83
2024/01/27 05:44:19;;;;;;;333.87;83.73;;;5.80;77.80;8.00;97801.00;;;;5022298;28;20448;-87
2024/01/27 05:47:10;;;;;;;334.83;83.57;;;5.90;77.80;8.40;97794.00;;;;5006520;28;20437;-86
2024/01/27 05:50:01;;;;;;;331.00;82.80;;;6.00;78.00;8.40;97801.00;;;;5029806;28;20518;-85
2024/01/27 05:52:49;;;;;;;337.87;83.70;;;6.00;78.40;8.40;97812.00;;;;4999995;28;20440;-85
2024/01/27 05:55:38;;;;;;;340.47;88.57;;;5.90;77.90;8.20;97801.00;;;;5046965;28;20427;-83
2024/01/27 05:58:27;;;;;;;332.83;89.27;;;5.90;79.20;7.80;97815.00;;;;5005956;28;20441;-85
2024/01/27 06:01:16;;;;;;;331.07;84.87;;;5.70;81.30;7.90;97817.00;;;;5022223;28;20449;-86
2024/01/27 06:04:05;;;;;;;333.60;84.47;;;5.60;80.20;7.70;97823.00;;;;5006488;28;20552;-85
2024/01/27 06:06:55;;;;;;;332.57;84.00;;;5.50;81.10;7.80;97820.00;;;;5031342;28;20440;-84
2024/01/27 06:09:44;;;;;;;337.57;85.27;;;5.40;94.70;7.70;97815.00;;;;5007358;28;20464;-84
2024/01/27 06:12:33;;;;;;;343.30;88.00;;;5.30;81.00;7.30;97822.00;;;;5007374;28;20442;-85
2024/01/27 06:15:23;;;;;;;333.83;82.63;;;5.20;83.30;7.30;97821.00;;;;5030600;27;20501;-83
2024/01/27 06:18:11;;;;;;;331.90;82.63;;;5.10;83.70;7.30;97827.00;;;;5001335;28;20808;-83
2024/01/27 06:21:00;;;;;;;333.27;82.43;;;5.00;83.80;7.30;97832.00;;;;5050433;28;20441;-87
2024/01/27 06:23:51;;;;;;;339.70;84.93;;;4.90;83.70;7.10;97823.00;;;;5006444;28;20444;-85
2024/01/27 06:26:39;;;;;;;336.27;81.73;;;4.80;84.90;7.00;97836.00;;;;5014525;28;20429;-84
2024/01/27 06:29:29;;;;;;;333.00;81.40;;;4.70;85.00;7.20;97834.00;;;;5022934;28;20444;-82
2024/01/27 06:32:17;;;;;;;437.67;167.17;;;4.70;83.70;7.20;97847.00;;;;4998874;28;20430;-86
2024/01/27 06:35:07;;;;;;;369.80;104.90;;;4.70;83.50;7.00;97843.00;;;;4982762;28;20445;-83
2024/01/27 06:37:56;;;;;;;329.63;79.10;;;4.70;85.10;7.20;97851.00;;;;5011684;28;20430;-86
2024/01/27 06:40:46;;;;;;;341.00;88.37;;;4.70;83.80;7.40;97867.00;;;;4994290;28;20445;-86
2024/01/27 06:43:35;;;;;;;429.27;160.27;;;5.80;82.70;7.30;97844.00;;;;4942491;28;21934;-84
2024/01/27 06:46:24;;;;;;;423.83;155.97;;;4.80;80.80;7.70;97871.00;;;;4945799;28;20441;-85
2024/01/27 06:49:14;;;;;;;382.63;117.90;;;5.10;80.10;7.80;97857.00;;;;4941282;28;20969;-83
2024/01/27 06:52:03;;;;;;;436.93;167.87;;;4.70;81.20;7.70;97868.00;;;;4949401;28;20631;-86
2024/01/27 06:54:52;;;;;;;373.13;110.73;;;5.20;82.00;7.40;97863.00;;;;4940533;28;20487;-85
2024/01/27 06:57:42;;;;;;;437.77;166.87;;;5.90;83.30;7.80;97877.00;;;;4947895;28;20861;-85
2024/01/27 07:00:31;;;;;;;381.03;113.67;;;5.30;80.10;8.20;97870.00;;;;4942892;28;20457;-86
2024/01/27 07:03:21;;;;;;;419.70;156.23;;;5.40;80.40;8.30;97886.00;;;;4946220;28;20478;-85
2024/01/27 07:06:10;;;;;;;418.50;154.10;;;;;7.80;97883.00;;;;4949285;27;20462;-83
2024/01/27 07:08:59;;;;;;;329.17;79.03;;;5.60;79.00;8.50;97866.00;;;;4957026;28;20494;-86
2024/01/27 07:11:49;;;;;;;429.57;160.37;;;5.70;78.60;8.30;97873.00;;;;4962047;28;20489;-86
2024/01/27 07:14:39;;;;;;;421.90;163.53;;;5.80;79.40;8.50;97885.00;;;;4959500;28;20521;-85
2024/01/27 07:17:28;;;;;;;333.00;84.60;;;5.90;79.30;8.40;97882.00;;;;5004601;28;20452;-83
2024/01/27 07:20:17;;;;;;;335.17;83.63;;;5.90;77.90;9.00;97900.00;;;;5045903;28;20475;-85
2024/01/27 07:23:06;;;;;;;337.13;85.07;;;6.20;74.50;9.00;97886.00;;;;5027426;28;20452;-87
2024/01/27 07:25:55;;;;;;;333.47;82.87;;;6.40;73.00;8.60;97882.00;;;;5007350;28;20438;-87
2024/01/27 07:28:44;;;;;;;348.43;97.80;;;6.60;72.60;9.50;97909.00;;;;4992317;28;20425;-84
2024/01/27 07:31:34;;;;;;;344.37;92.57;;;6.90;70.90;9.30;97904.00;;;;5004517;28;20802;-86
2024/01/27 07:34:23;;;;;;;334.03;85.57;;;7.00;70.50;9.30;97889.00;;;;5028643;28;20429;-84
2024/01/27 07:37:12;;;;;;;331.80;83.60;;;7.10;70.40;9.70;97910.00;;;;5007544;28;20210;-85
2024/01/27 07:40:02;;;;;;;338.17;91.53;;;7.20;70.50;9.30;97898.00;;;;5018908;28;20980;-85
2024/01/27 07:42:51;;;;;;;346.57;94.53;;;7.20;70.00;9.80;97901.00;;;;5003664;28;20678;-86
2024/01/27 07:45:40;;;;;;;340.60;89.73;;;7.30;69.20;10.10;97921.00;;;;5019298;28;20205;-84
2024/01/27 07:48:30;;;;;;;336.50;90.13;;;7.40;69.30;9.80;97916.00;;;;5013604;28;20435;-86
2024/01/27 07:51:19;;;;;;;340.40;90.90;;;7.40;68.50;9.30;97908.00;;;;5005661;28;20230;-85
2024/01/27 07:54:08;;;;;;;339.27;91.27;;;7.40;69.20;9.80;97919.00;;;;5015983;28;20212;-85
2024/01/27 07:56:57;;;;;;;337.77;89.43;;;7.40;69.50;9.70;97910.00;;;;5003408;28;20217;-86
2024/01/27 07:59:45;;;;;;;351.27;100.03;;;7.30;70.30;9.60;97906.00;;;;5001056;28;20205;-87
2024/01/27 08:02:35;;;;;;;341.57;93.50;;;7.40;69.80;9.80;97918.00;;;;5001731;28;20205;-86
2024/01/27 08:05:25;;;;;;;345.27;96.80;;;7.40;69.40;10.20;97927.00;;;;5019347;28;20579;-85
2024/01/27 08:08:14;;;;;;;340.80;93.17;;;7.40;68.40;10.00;97925.00;;;;5012180;28;20591;-84
2024/01/27 08:11:05;;;;;;;338.63;90.20;;;7.50;68.00;10.40;97931.00;;;;5007377;28;20254;-86
2024/01/27 08:13:54;;;;;;;349.33;98.00;;;7.60;68.00;10.10;97912.00;;;;5018116;28;20210;-84
2024/01/27 08:16:43;;;;;;;344.63;97.50;;;7.70;68.10;10.30;97945.00;;;;5009347;28;20221;-87
2024/01/27 08:19:33;;;;;;;347.10;97.33;;;7.80;66.30;10.80;97947.00;;;;5006930;28;20206;-87
2024/01/27 08:22:23;;;;;;;334.47;89.10;;;7.90;66.30;10.50;97935.00;;;;5006861;28;20210;-84
2024/01/27 08:25:12;;;;;;;347.13;98.23;;;8.00;65.10;9.90;97933.00;;;;5001417;28;20214;-89
2024/01/27 08:28:01;;;;;;;343.33;95.13;;;8.00;64.30;9.80;97940.00;;;;5001924;28;20214;-85
2024/01/27 08:30:50;;;;;;;352.93;102.57;;;8.10;64.80;10.00;97939.00;;;;5006568;28;20248;-83
2024/01/27 08:33:39;;;;;;;340.97;93.73;;;8.10;64.20;10.70;97940.00;;;;5007348;28;20645;-83
2024/01/27 08:36:28;;;;;;;344.93;97.93;;;8.20;64.20;11.40;97941.00;;;;5003849;28;20213;-85
2024/01/27 08:39:18;;;;;;;336.73;90.70;;;8.40;64.60;11.40;97950.00;;;;5014936;28;20206;-85
2024/01/27 08:42:07;;;;;;;344.70;99.20;;;8.50;64.50;11.20;97949.00;;;;5014552;28;20199;-84
2024/01/27 08:44:56;;;;;;;347.00;100.17;;;8.60;61.90;10.70;97954.00;;;;5004811;28;20214;-87
2024/01/27 08:47:45;;;;;;;349.03;102.67;;;8.60;60.70;11.00;97967.00;;;;5001742;28;20225;-87
2024/01/27 08:50:34;;;;;;;342.57;97.93;;;8.70;60.30;11.50;97963.00;;;;5016270;28;20214;-88
2024/01/27 08:53:23;;;;;;;343.30;97.93;;;8.80;60.60;11.60;97976.00;;;;5014360;28;20214;-87
2024/01/27 08:56:14;;;;;;;343.27;100.77;;;8.80;59.80;11.60;97984.00;;;;5009308;28;20209;-85
2024/01/27 08:59:03;;;;;;;343.70;99.40;;;8.90;61.20;11.90;97990.00;;;;5004512;28;20229;-86
2024/01/27 09:01:52;;;;;;;351.50;105.07;;;9.00;60.90;10.80;97979.00;;;;5004538;28;20228;-84
2024/01/27 09:04:40;;;;;;;352.30;101.80;;;9.00;59.80;11.50;97994.00;;;;5009530;28;20225;-88
2024/01/27 09:07:30;;;;;;;346.50;103.57;;;9.00;59.50;12.10;98001.00;;;;5010055;28;20206;-86
2024/01/27 09:10:19;;;;;;;341.37;97.37;;;9.10;60.50;12.00;98004.00;;;;5007163;28;20607;-87
2024/01/27 09:13:09;;;;;;;346.40;113.57;;;9.20;60.30;12.30;98006.00;;;;5004485;28;20226;-88
2024/01/27 09:15:59;;;;;;;339.83;101.73;;;9.30;60.40;12.50;98018.00;;;;5021516;28;20217;-87
2024/01/27 09:18:50;;;;;;;350.00;108.07;;;9.40;60.40;11.70;98001.00;;;;5002596;28;20209;-87
2024/01/27 09:21:39;;;;;;;341.53;101.87;;;9.40;59.50;11.20;98015.00;;;;5001949;28;20771;-88
2024/01/27 09:24:27;;;;;;;340.10;104.43;;;9.30;58.10;11.70;98012.00;;;;4998948;28;20214;-86
2024/01/27 09:27:17;;;;;;;341.70;101.07;;;9.30;57.70;12.00;98027.00;;;;5010802;28;20315;-85
2024/01/27 09:30:09;;;;;;;348.87;101.53;;;9.40;58.70;12.50;98028.00;;;;5029198;28;20218;-85
2024/01/27 09:32:58;;;;;;;343.87;98.60;;;9.40;58.50;12.70;98031.00;;;;5010181;27;20827;-87
2024/01/27 09:35:48;;;;;;;353.43;106.17;;;9.60;58.90;12.80;98038.00;;;;5005375;28;20742;-85
2024/01/27 09:38:37;;;;;;;347.57;100.90;;;9.70;59.10;12.30;98040.00;;;;5014344;28;20681;-87
2024/01/27 09:41:32;;;;;;;341.40;100.90;;;9.80;57.70;13.10;98044.00;;;;5007680;28;20228;-86
2024/01/27 09:44:20;;;;;;;344.33;97.90;;;9.90;58.20;12.60;98039.00;;;;5007549;28;20214;-87
2024/01/27 09:47:12;;;;;;;350.93;103.43;;;10.00;57.90;12.80;98046.00;;;;5013705;28;20218;-85
2024/01/27 09:50:01;;;;;;;348.00;102.57;;;10.00;57.40;12.70;98034.00;;;;5010312;28;20706;-86
2024/01/27 09:52:50;;;;;;;353.53;108.03;;;10.10;56.20;13.30;98045.00;;;;5023403;28;20229;-87
2024/01/27 09:55:39;;;;;;;343.23;99.30;;;10.20;55.60;12.60;98037.00;;;;5006556;28;20209;-86
2024/01/27 09:58:28;;;;;;;349.73;109.60;;;10.30;55.80;13.70;98041.00;;;;5009506;28;20604;-87
2024/01/27 10:01:18;;;;;;;357.00;111.80;;;10.40;56.10;14.10;98048.00;;;;5009974;28;20225;-85
2024/01/27 10:04:10;;;;;;;351.30;107.73;;;10.70;56.50;13.40;98048.00;;;;5007066;28;20209;-86
2024/01/27 10:07:01;;;;;;;348.70;106.40;;;10.80;55.60;13.70;98045.00;;;;5008531;28;20228;-87
2024/01/27 10:09:50;;;;;;;369.37;122.97;;;10.80;55.40;14.30;98033.00;;;;5000035;28;20195;-85
2024/01/27 10:12:42;;;;;;;354.70;111.10;;;11.00;55.40;14.30;98058.00;;;;5013080;28;20229;-86
2024/01/27 10:15:31;;;;;;;352.50;109.20;;;11.10;54.70;13.90;98033.00;;;;5004514;28;20210;-86
2024/01/27 10:18:21;;;;;;;356.60;110.73;;;11.00;53.80;12.60;98030.00;;;;5005179;28;20218;-87
2024/01/27 10:21:18;;;;;;;354.73;115.83;;;11.00;51.50;13.00;98034.00;;;;5004151;28;20245;-85
2024/01/27 10:24:08;;;;;;;352.40;110.27;;;10.80;52.20;12.80;98058.00;;;;5005108;28;20625;-82
2024/01/27 10:27:01;;;;;;;360.43;112.40;;;11.10;52.30;13.70;98059.00;;;;5015743;28;20202;-85
2024/01/27 10:29:54;;;;;;;363.73;120.63;;;10.80;52.60;13.20;98043.00;;;;5009093;28;20251;-85
2024/01/27 10:32:43;;;;;;;361.83;120.33;;;10.90;51.90;11.70;98026.00;;;;5005548;28;20222;-84
2024/01/27 10:35:32;;;;;;;348.87;106.97;;;10.70;50.00;13.10;98038.00;;;;5003265;28;20699;-87
2024/01/27 10:38:22;;;;;;;352.33;115.83;;;10.70;51.30;13.30;98025.00;;;;5033621;28;20206;-82
2024/01/27 10:41:11;;;;;;;354.40;115.77;;;10.80;50.60;13.40;98035.00;;;;5035872;28;20231;-82
2024/01/27 10:44:01;;;;;;;355.47;118.87;;;11.50;50.70;13.00;98044.00;;;;5006563;28;20568;-85
2024/01/27 10:46:51;;;;;;;362.90;116.97;;;12.10;50.00;14.40;98037.00;;;;5003847;28;20574;-83
2024/01/27 10:49:43;;;;;;;353.73;113.17;;;12.70;48.50;14.70;98035.00;;;;5024516;28;20210;-83
2024/01/27 10:52:33;;;;;;;361.20;125.77;;;13.30;47.80;16.20;98042.00;;;;5016108;28;20226;-85
2024/01/27 10:55:24;;;;;;;361.33;127.47;;;14.00;47.80;16.20;98048.00;;;;5007383;28;20206;-88
2024/01/27 10:58:17;;;;;;;365.33;138.10;;;14.80;46.20;17.00;98042.00;;;;5028446;28;20206;-83
2024/01/27 11:01:07;;;;;;;364.47;140.13;;;15.50;45.20;17.20;98051.00;;;;5012693;28;20230;-85
2024/01/27 11:03:57;;;;;;;374.90;154.67;;;16.20;44.10;16.00;98045.00;;;;5001508;28;20579;-85
2024/01/27 11:06:48;;;;;;;369.60;152.17;;;16.10;42.30;17.90;98051.00;;;;5027794;28;20194;-84
2024/01/27 11:09:38;;;;;;;365.37;154.33;;;16.40;43.30;17.20;98050.00;;;;5034057;28;20209;-87
2024/01/27 11:12:29;;;;;;;375.43;172.93;;;17.10;42.00;16.90;98062.00;;;;4997122;28;20222;-86
2024/01/27 11:15:18;;;;;;;381.53;186.10;;;17.30;40.80;14.70;98040.00;;;;5044682;28;20214;-86
2024/01/27 11:18:08;;;;;;;382.20;172.97;;;16.50;40.70;14.60;98040.00;;;;5008509;28;20205;-86
2024/01/27 11:20:59;;;;;;;380.10;170.20;;;15.40;41.70;16.60;98040.00;;;;5006386;28;20231;-87
2024/01/27 11:23:49;;;;;;;377.70;166.17;;;15.20;43.00;17.60;98062.00;;;;5012434;28;20194;-85
2024/01/27 11:26:38;;;;;;;376.40;178.00;;;15.40;44.30;18.70;98057.00;;;;5004575;28;21018;-89
2024/01/27 11:29:29;;;;;;;376.63;180.33;;;16.20;43.10;19.30;98062.00;;;;5022887;28;20203;-87
2024/01/27 11:32:18;;;;;;;371.23;179.43;;;17.00;42.30;17.80;98060.00;;;;5012366;28;20240;-85
2024/01/27 11:35:08;;;;;;;374.50;187.13;;;17.50;41.00;16.90;98056.00;;;;5002040;28;20302;-86
2024/01/27 11:37:57;;;;;;;383.87;210.27;;;17.30;40.50;17.40;98056.00;;;;5003291;28;20295;-87
2024/01/27 11:40:47;;;;;;;378.53;192.50;;;17.00;40.00;15.90;98052.00;;;;5005080;28;20218;-86
2024/01/27 11:43:36;;;;;;;378.17;203.70;;;16.50;39.50;16.90;98061.00;;;;5010047;28;20202;-84
2024/01/27 11:46:27;;;;;;;372.53;181.57;;;16.20;40.80;15.00;98070.00;;;;5016400;28;20675;-86
2024/01/27 11:49:18;;;;;;;377.57;182.40;;;15.40;40.10;13.30;98054.00;;;;5002556;28;20208;-83
2024/01/27 11:52:08;;;;;;;372.53;168.40;;;14.40;40.60;15.30;98057.00;;;;5002472;28;20239;-83
2024/01/27 11:54:58;;;;;;;384.17;172.37;;;14.00;41.40;13.90;98041.00;;;;5003442;28;20198;-91
2024/01/27 11:57:46;;;;;;;369.80;148.53;;;14.00;41.50;15.30;98053.00;;;;4998194;28;20191;-86
2024/01/27 12:00:35;;;;;;;369.63;155.43;;;13.90;41.90;17.10;98053.00;;;;5021833;28;20304;-85
2024/01/27 12:03:27;;;;;;;366.70;150.37;;;14.30;43.40;18.00;98060.00;;;;5010360;28;20209;-86
2024/01/27 12:06:16;;;;;;;367.80;158.13;;;14.80;42.90;17.30;98057.00;;;;5031570;28;20218;-87
2024/01/27 12:09:11;;;;;;;370.97;177.67;;;15.20;41.20;16.80;98057.00;;;;5003331;28;20275;-87
2024/01/27 12:12:00;;;;;;;375.93;185.90;;;15.30;41.90;16.80;98057.00;;;;5027287;28;20226;-87
2024/01/27 12:14:51;;;;;;;382.10;191.27;;;15.40;40.40;16.60;98038.00;;;;5001399;28;20678;-87
2024/01/27 12:17:40;;;;;;;381.43;206.53;;;15.40;40.70;16.30;98057.00;;;;5003142;28;20203;-88